createdAt,value
2019-05-13T05:54:42.863Z,6.70
2019-05-13T06:44:45.083Z,8.20
2019-05-13T06:55:17.045Z,8.30
2019-05-13T07:19:18.616Z,9.70
2019-05-13T08:48:14.474Z,11.00
2019-05-13T08:50:44.546Z,14.60
2019-05-13T08:53:16.056Z,14.30
2019-05-13T08:55:45.497Z,14.60
2019-05-13T08:58:14.953Z,15.00
2019-05-13T09:00:52.715Z,15.50
2019-05-13T09:03:22.309Z,15.90
2019-05-13T09:05:53.453Z,15.90
2019-05-13T09:08:24.357Z,16.50
2019-05-13T09:10:56.889Z,16.90
2019-05-13T09:13:26.116Z,17.60
2019-05-13T09:15:55.623Z,18.00
2019-05-13T09:18:25.092Z,18.60
2019-05-13T09:20:54.529Z,19.40
2019-05-13T09:23:24.061Z,20.00
2019-05-13T09:25:53.577Z,19.50
2019-05-13T09:28:23.031Z,18.90
2019-05-13T09:30:53.337Z,18.20
2019-05-13T09:33:24.116Z,17.20
2019-05-13T09:35:53.863Z,16.20
2019-05-13T09:38:23.338Z,15.60
2019-05-13T09:40:53.315Z,15.20
2019-05-13T09:43:23.044Z,14.80
2019-05-13T09:45:52.703Z,14.60
2019-05-13T09:48:22.927Z,14.20
2019-05-13T09:50:52.491Z,14.00
2019-05-13T09:53:22.587Z,13.80
2019-05-13T09:55:52.545Z,13.70
2019-05-13T09:58:22.645Z,13.90
2019-05-13T10:00:53.028Z,14.00
2019-05-13T10:05:53.892Z,13.30
2019-05-13T10:08:23.403Z,13.20
2019-05-13T10:10:53.085Z,13.20
2019-05-13T10:13:23.310Z,13.50
2019-05-13T10:15:53.074Z,13.90
2019-05-13T10:18:25.157Z,14.30
2019-05-13T10:20:58.935Z,14.50
2019-05-13T10:23:32.500Z,14.50
2019-05-13T10:26:03.910Z,14.20
2019-05-13T10:28:33.863Z,13.90
2019-05-13T10:31:04.157Z,13.90
2019-05-13T10:33:35.088Z,13.70
2019-05-13T10:36:04.852Z,13.30
2019-05-13T10:38:34.512Z,12.90
2019-05-13T10:41:04.097Z,12.40
2019-05-13T10:43:36.797Z,12.10
2019-05-13T10:46:04.926Z,12.00
2019-05-13T10:48:34.346Z,12.00
2019-05-13T10:51:04.049Z,12.00
2019-05-13T10:53:33.588Z,12.00
2019-05-13T10:56:03.527Z,12.10
2019-05-13T10:58:33.143Z,12.20
2019-05-13T11:01:03.207Z,12.40
2019-05-13T11:03:33.279Z,12.70
2019-05-13T11:06:02.885Z,12.80
2019-05-13T11:08:33.395Z,12.90
2019-05-13T11:11:03.051Z,13.30
2019-05-13T11:13:50.817Z,13.70
2019-05-13T11:16:03.621Z,13.90
2019-05-13T11:18:33.066Z,14.40
2019-05-13T11:21:03.589Z,14.90
2019-05-13T11:23:33.030Z,14.50
2019-05-13T11:26:03.342Z,14.20
2019-05-13T11:28:33.352Z,14.00
2019-05-13T11:31:03.527Z,13.90
2019-05-13T11:33:33.301Z,14.10
2019-05-13T11:36:03.473Z,14.30
2019-05-13T11:38:33.303Z,14.60
2019-05-13T11:41:03.239Z,14.60
2019-05-13T11:43:33.798Z,14.60
2019-05-13T11:46:03.605Z,14.30
2019-05-13T11:48:33.033Z,14.10
2019-05-13T11:51:03.987Z,13.90
2019-05-13T11:53:37.671Z,13.80
2019-05-13T11:56:05.974Z,13.60
2019-05-13T11:58:35.386Z,13.30
2019-05-13T12:01:05.712Z,13.30
2019-05-13T12:03:35.160Z,13.40
2019-05-13T12:06:04.773Z,13.50
2019-05-13T12:08:34.547Z,13.40
2019-05-13T12:11:04.733Z,13.40
2019-05-13T12:13:35.289Z,13.40
2019-05-13T12:16:05.807Z,13.40
2019-05-13T12:18:39.323Z,13.40
2019-05-13T12:21:06.393Z,13.60
2019-05-13T12:23:35.840Z,13.90
2019-05-13T12:26:05.506Z,14.40
2019-05-13T12:28:34.892Z,15.00
2019-05-13T12:31:04.624Z,15.70
2019-05-13T12:33:34.064Z,16.10
2019-05-13T12:36:03.581Z,16.10
2019-05-13T12:38:33.631Z,16.40
2019-05-13T12:41:05.364Z,16.50
2019-05-13T12:43:34.482Z,16.80
2019-05-13T12:46:04.264Z,16.60
2019-05-13T12:48:33.831Z,16.30
2019-05-13T12:51:03.434Z,16.00
2019-05-13T12:53:32.934Z,15.80
2019-05-13T12:58:34.444Z,15.40
2019-05-13T13:01:04.102Z,15.00
2019-05-13T13:03:33.644Z,14.80
2019-05-13T13:06:25.910Z,15.00
2019-05-13T13:08:43.738Z,15.10
2019-05-13T13:11:05.679Z,15.40
2019-05-13T13:13:56.859Z,15.50
2019-05-13T13:16:06.508Z,15.50
2019-05-13T13:18:36.404Z,15.50
2019-05-13T13:21:07.725Z,15.60
2019-05-13T13:23:37.001Z,15.70
2019-05-13T13:26:13.971Z,15.80
2019-05-13T13:28:37.517Z,16.00
2019-05-13T13:31:07.019Z,15.60
2019-05-13T13:33:36.476Z,15.20
2019-05-13T13:36:05.936Z,15.20
2019-05-13T13:38:36.178Z,15.10
2019-05-13T13:41:05.747Z,15.00
2019-05-13T13:43:36.859Z,15.00
2019-05-13T13:46:23.165Z,15.20
2019-05-13T13:48:37.343Z,15.40
2019-05-13T13:51:06.780Z,15.60
2019-05-13T13:53:36.292Z,15.40
2019-05-13T13:56:05.681Z,15.20
2019-05-13T13:58:35.208Z,15.20
2019-05-13T14:01:11.882Z,15.50
2019-05-13T14:03:35.803Z,15.70
2019-05-13T14:06:06.547Z,15.50
2019-05-13T14:06:25.463Z,13.70
2019-05-13T14:06:35.508Z,15.60
2019-05-13T14:08:36.684Z,15.00
2019-05-13T14:11:06.153Z,14.70
2019-05-13T14:13:35.619Z,14.80
2019-05-13T14:16:05.132Z,15.10
2019-05-13T14:18:34.681Z,15.40
2019-05-13T14:21:04.246Z,15.80
2019-05-13T14:23:33.710Z,16.20
2019-05-13T14:26:03.154Z,16.40
2019-05-13T14:28:32.939Z,16.20
2019-05-13T14:31:02.471Z,16.00
2019-05-13T14:33:35.225Z,16.00
2019-05-13T14:36:03.061Z,16.00
2019-05-13T14:38:32.937Z,15.80
2019-05-13T14:41:03.496Z,15.60
2019-05-13T14:43:33.132Z,15.40
2019-05-13T14:46:02.722Z,15.00
2019-05-13T14:48:33.319Z,14.80
2019-05-13T14:51:02.731Z,15.00
2019-05-13T14:53:32.568Z,15.60
2019-05-13T14:56:03.318Z,16.20
2019-05-13T14:58:33.096Z,16.70
2019-05-13T15:01:15.711Z,17.00
2019-05-13T15:03:33.889Z,17.60
2019-05-13T15:06:03.766Z,18.10
2019-05-13T15:08:33.289Z,18.60
2019-05-13T15:11:03.912Z,18.60
2019-05-13T15:13:33.373Z,18.70
2019-05-13T15:16:02.809Z,18.90
2019-05-13T15:18:33.402Z,18.80
2019-05-13T15:21:02.912Z,18.20
2019-05-13T15:23:32.402Z,17.00
2019-05-13T15:26:02.414Z,16.00
2019-05-13T15:28:32.128Z,15.10
2019-05-13T15:31:02.625Z,14.40
2019-05-13T15:33:32.884Z,14.10
2019-05-13T15:36:02.584Z,13.90
2019-05-13T15:38:32.281Z,14.00
2019-05-13T15:41:02.219Z,14.70
2019-05-13T15:43:32.147Z,15.90
2019-05-13T15:46:02.752Z,17.20
2019-05-13T15:48:32.503Z,18.30
2019-05-13T15:51:02.336Z,19.40
2019-05-13T15:53:32.226Z,19.80
2019-05-13T15:56:02.705Z,18.90
2019-05-13T15:58:41.366Z,17.10
2019-05-13T16:01:04.442Z,15.80
2019-05-13T16:03:33.964Z,14.80
2019-05-13T16:06:03.561Z,14.10
2019-05-13T16:08:33.007Z,13.80
2019-05-13T16:11:02.595Z,13.50
2019-05-13T16:13:33.067Z,13.40
2019-05-13T16:16:02.724Z,13.70
2019-05-13T16:18:32.167Z,14.80
2019-05-13T16:21:02.004Z,16.20
2019-05-13T16:23:32.702Z,17.60
2019-05-13T16:26:02.171Z,18.70
2019-05-13T16:28:32.391Z,19.40
2019-05-13T16:31:02.648Z,20.30
2019-05-13T16:33:32.282Z,20.90
2019-05-13T16:36:02.635Z,20.20
2019-05-13T16:38:32.982Z,18.80
2019-05-13T16:41:02.743Z,17.50
2019-05-13T16:43:32.477Z,16.60
2019-05-13T16:46:01.929Z,16.20
2019-05-13T16:48:32.353Z,16.50
2019-05-13T16:51:02.092Z,16.70
2019-05-13T16:53:31.781Z,16.20
2019-05-13T16:56:01.958Z,15.40
2019-05-13T16:58:32.508Z,14.60
2019-05-13T17:01:03.836Z,14.10
2019-05-13T17:03:33.338Z,13.80
2019-05-13T17:06:02.876Z,13.70
2019-05-13T17:08:32.375Z,13.70
2019-05-13T17:11:02.344Z,13.60
2019-05-13T17:13:31.842Z,13.50
2019-05-13T17:16:01.723Z,13.40
2019-05-13T17:18:32.513Z,13.30
2019-05-13T17:21:03.185Z,13.70
2019-05-13T17:23:32.632Z,14.10
2019-05-13T17:26:02.761Z,14.30
2019-05-13T17:28:34.171Z,15.00
2019-05-13T17:31:03.559Z,15.20
2019-05-13T17:33:33.098Z,14.80
2019-05-13T17:36:03.760Z,14.30
2019-05-13T17:38:33.224Z,13.80
2019-05-13T17:41:02.735Z,13.40
2019-05-13T17:43:32.389Z,12.90
2019-05-13T17:46:02.271Z,12.70
2019-05-13T17:48:32.957Z,12.50
2019-05-13T17:51:02.747Z,12.30
2019-05-13T17:53:32.687Z,12.00
2019-05-13T17:56:03.214Z,12.00
2019-05-13T17:58:32.676Z,12.10
2019-05-13T18:01:02.189Z,11.90
2019-05-13T18:03:32.245Z,11.70
2019-05-13T18:06:02.717Z,11.40
2019-05-13T18:08:32.333Z,11.20
2019-05-13T18:11:02.571Z,11.00
2019-05-13T18:13:32.501Z,10.90
2019-05-13T18:16:02.704Z,10.70
2019-05-13T18:18:42.541Z,10.60
2019-05-13T18:21:03.965Z,10.50
2019-05-13T18:23:33.415Z,10.40
2019-05-13T18:26:02.928Z,10.30
2019-05-13T18:28:32.384Z,10.20
2019-05-13T18:31:01.980Z,10.00
2019-05-13T18:33:32.112Z,9.90
2019-05-13T18:36:02.143Z,9.80
2019-05-13T18:38:31.608Z,9.70
2019-05-13T18:41:01.738Z,9.60
2019-05-13T18:43:32.543Z,9.50
2019-05-13T18:46:02.355Z,9.50
2019-05-13T18:48:32.389Z,9.40
2019-05-13T18:51:01.933Z,9.30
2019-05-13T18:53:32.094Z,9.20
2019-05-13T18:56:02.192Z,9.10
2019-05-13T18:58:31.922Z,9.10
2019-05-13T19:01:01.582Z,9.00
2019-05-13T19:03:32.394Z,8.90
2019-05-13T19:06:02.027Z,8.80
2019-05-13T19:08:32.058Z,8.70
2019-05-13T19:11:01.873Z,8.60
2019-05-13T19:13:32.368Z,8.50
2019-05-13T19:16:03.740Z,8.40
2019-05-13T19:18:33.293Z,8.20
2019-05-13T19:21:05.689Z,8.10
2019-05-13T19:23:35.147Z,8.00
2019-05-13T19:26:04.661Z,7.80
2019-05-13T19:28:35.259Z,7.70
2019-05-13T19:31:04.751Z,7.70
2019-05-13T19:33:34.225Z,7.60
2019-05-13T19:36:03.715Z,7.40
2019-05-13T19:38:33.250Z,7.30
2019-05-13T19:41:02.702Z,7.20
2019-05-13T19:43:32.190Z,7.10
2019-05-13T19:46:01.914Z,7.00
2019-05-13T19:48:32.560Z,6.90
2019-05-13T19:51:05.116Z,6.80
2019-05-13T19:53:34.708Z,6.60
2019-05-13T19:56:04.199Z,6.50
2019-05-13T19:58:33.755Z,6.40
2019-05-13T20:01:04.386Z,6.40
2019-05-13T20:03:33.857Z,6.30
2019-05-13T20:06:03.283Z,6.20
2019-05-13T20:08:32.785Z,6.20
2019-05-13T20:11:02.454Z,6.20
2019-05-13T20:13:31.898Z,6.20
2019-05-13T20:16:01.665Z,6.20
2019-05-13T20:18:32.145Z,6.20
2019-05-13T20:21:02.888Z,6.20
2019-05-13T20:23:32.377Z,6.10
2019-05-13T20:26:01.827Z,6.20
2019-05-13T20:28:31.826Z,6.20
2019-05-13T20:31:01.861Z,6.20
2019-05-13T20:33:32.310Z,6.20
2019-05-13T20:36:02.813Z,6.20
2019-05-13T20:38:32.249Z,6.20
2019-05-13T20:41:01.706Z,6.20
2019-05-13T20:43:32.781Z,6.20
2019-05-13T20:46:02.343Z,6.20
2019-05-13T20:48:32.167Z,6.20
2019-05-13T20:51:02.820Z,6.20
2019-05-13T20:53:32.321Z,6.20
2019-05-13T20:56:02.020Z,6.40
2019-05-13T20:58:32.038Z,6.70
2019-05-13T21:01:02.314Z,7.10
2019-05-13T21:03:32.149Z,7.40
2019-05-13T21:06:01.595Z,7.60
2019-05-13T21:08:32.141Z,7.70
2019-05-13T21:11:02.411Z,7.80
2019-05-13T21:13:32.028Z,7.70
2019-05-13T21:16:02.233Z,7.80
2019-05-13T21:18:31.968Z,7.80
2019-05-13T21:21:01.483Z,7.70
2019-05-13T21:23:31.389Z,7.60
2019-05-13T21:26:01.642Z,7.50
2019-05-13T21:28:31.290Z,7.50
2019-05-13T21:31:02.228Z,7.40
2019-05-13T21:33:31.780Z,7.40
2019-05-13T21:36:01.820Z,7.40
2019-05-13T21:38:32.407Z,7.40
2019-05-13T21:41:02.200Z,7.40
2019-05-13T21:43:32.381Z,7.50
2019-05-13T21:46:02.300Z,7.50
2019-05-13T21:48:32.409Z,7.50
2019-05-13T21:51:02.208Z,7.50
2019-05-13T21:53:32.869Z,7.50
2019-05-13T21:56:02.542Z,7.50
2019-05-13T21:58:32.062Z,7.50
2019-05-13T22:01:02.432Z,7.50
2019-05-13T22:03:33.576Z,7.40
2019-05-13T22:06:03.295Z,7.40
2019-05-13T22:08:32.796Z,7.40
2019-05-13T22:11:02.324Z,7.30
2019-05-13T22:13:31.833Z,7.30
2019-05-13T22:16:01.802Z,7.20
2019-05-13T22:18:31.655Z,7.10
2019-05-13T22:21:01.549Z,7.10
2019-05-13T22:23:32.074Z,6.90
2019-05-13T22:26:01.990Z,6.80
2019-05-13T22:28:31.551Z,6.60
2019-05-13T22:31:01.522Z,6.50
2019-05-13T22:33:32.381Z,6.50
2019-05-13T22:36:02.126Z,6.50
2019-05-13T22:38:32.238Z,6.40
2019-05-13T22:41:02.319Z,6.40
2019-05-13T22:43:32.193Z,6.40
2019-05-13T22:46:01.887Z,6.40
2019-05-13T22:48:31.917Z,6.30
2019-05-13T22:51:01.653Z,6.20
2019-05-13T22:53:31.788Z,6.20
2019-05-13T22:56:01.447Z,6.10
2019-05-13T22:58:32.095Z,6.00
2019-05-13T23:01:02.569Z,5.90
2019-05-13T23:03:32.478Z,5.90
2019-05-13T23:06:01.998Z,5.80
2019-05-13T23:08:32.392Z,5.80
2019-05-13T23:11:02.308Z,5.80
2019-05-13T23:13:31.873Z,5.70
2019-05-13T23:16:02.318Z,5.60
2019-05-13T23:18:32.081Z,5.60
2019-05-13T23:21:02.379Z,5.60
2019-05-13T23:23:32.063Z,5.60
2019-05-13T23:26:01.485Z,5.60
2019-05-13T23:28:32.282Z,5.60
2019-05-13T23:31:01.940Z,5.60
2019-05-13T23:33:31.538Z,5.50
2019-05-13T23:36:01.521Z,5.40
2019-05-13T23:38:32.036Z,5.40
2019-05-13T23:41:02.163Z,5.30
2019-05-13T23:43:31.885Z,5.30
2019-05-13T23:46:01.401Z,5.20
2019-05-13T23:48:32.141Z,5.20
2019-05-13T23:51:01.693Z,5.20
2019-05-13T23:53:32.217Z,5.10
2019-05-13T23:56:02.081Z,5.10
2019-05-13T23:58:32.142Z,5.10
